sensor_id;sensor_type;location;lat;lon;timestamp;temperature;humidity
6792;DHT22;3433;48.730;9.108;2023-11-21T00:00:07;10.10;99.90
6792;DHT22;3433;48.730;9.108;2023-11-21T00:02:58;10.00;99.90
6792;DHT22;3433;48.730;9.108;2023-11-21T00:05:45;10.00;99.90
6792;DHT22;3433;48.730;9.108;2023-11-21T00:08:34;9.70;99.90
6792;DHT22;3433;48.730;9.108;2023-11-21T00:11:21;9.70;99.90
6792;DHT22;3433;48.730;9.108;2023-11-21T00:14:08;9.80;99.90
6792;DHT22;3433;48.730;9.108;2023-11-21T00:16:56;10.00;99.90
6792;DHT22;3433;48.730;9.108;2023-11-21T00:19:43;10.00;99.90
6792;DHT22;3433;48.730;9.108;2023-11-21T00:22:30;10.00;99.90
6792;DHT22;3433;48.730;9.108;2023-11-21T00:25:19;10.00;99.90
6792;DHT22;3433;48.730;9.108;2023-11-21T00:28:07;10.00;99.90
6792;DHT22;3433;48.730;9.108;2023-11-21T00:30:54;9.90;99.90
6792;DHT22;3433;48.730;9.108;2023-11-21T00:33:41;9.80;99.90
6792;DHT22;3433;48.730;9.108;2023-11-21T00:36:29;9.80;99.90
6792;DHT22;3433;48.730;9.108;2023-11-21T00:39:16;9.80;99.90
6792;DHT22;3433;48.730;9.108;2023-11-21T00:42:05;9.80;99.90
6792;DHT22;3433;48.730;9.108;2023-11-21T00:44:52;9.70;99.90
6792;DHT22;3433;48.730;9.108;2023-11-21T00:47:39;9.70;99.90
6792;DHT22;3433;48.730;9.108;2023-11-21T00:50:26;9.80;99.90
6792;DHT22;3433;48.730;9.108;2023-11-21T00:53:14;9.60;99.90
6792;DHT22;3433;48.730;9.108;2023-11-21T00:56:01;9.70;99.90
6792;DHT22;3433;48.730;9.108;2023-11-21T00:58:50;9.30;99.90
6792;DHT22;3433;48.730;9.108;2023-11-21T01:01:38;9.10;99.90
6792;DHT22;3433;48.730;9.108;2023-11-21T01:04:25;9.00;99.90
6792;DHT22;3433;48.730;9.108;2023-11-21T01:07:12;9.10;99.90
6792;DHT22;3433;48.730;9.108;2023-11-21T01:10:00;9.10;99.90
6792;DHT22;3433;48.730;9.108;2023-11-21T01:12:47;9.00;99.90
6792;DHT22;3433;48.730;9.108;2023-11-21T01:15:36;8.90;99.90
6792;DHT22;3433;48.730;9.108;2023-11-21T01:18:23;9.00;99.90
6792;DHT22;3433;48.730;9.108;2023-11-21T01:21:11;9.10;99.90
6792;DHT22;3433;48.730;9.108;2023-11-21T01:23:58;9.30;99.90
6792;DHT22;3433;48.730;9.108;2023-11-21T01:26:45;9.50;99.90
6792;DHT22;3433;48.730;9.108;2023-11-21T01:29:33;9.50;99.90
6792;DHT22;3433;48.730;9.108;2023-11-21T01:32:21;9.60;99.90
6792;DHT22;3433;48.730;9.108;2023-11-21T01:35:09;9.60;99.90
6792;DHT22;3433;48.730;9.108;2023-11-21T01:37:56;9.50;99.90
6792;DHT22;3433;48.730;9.108;2023-11-21T01:40:43;9.60;99.90
6792;DHT22;3433;48.730;9.108;2023-11-21T01:43:31;9.50;99.90
6792;DHT22;3433;48.730;9.108;2023-11-21T01:46:18;9.40;99.90
6792;DHT22;3433;48.730;9.108;2023-11-21T01:49:07;9.70;99.90
6792;DHT22;3433;48.730;9.108;2023-11-21T01:51:55;9.80;99.90
6792;DHT22;3433;48.730;9.108;2023-11-21T01:54:42;9.70;99.90
6792;DHT22;3433;48.730;9.108;2023-11-21T01:57:30;9.50;99.90
6792;DHT22;3433;48.730;9.108;2023-11-21T02:00:17;9.30;99.90
6792;DHT22;3433;48.730;9.108;2023-11-21T02:03:05;9.30;99.90
6792;DHT22;3433;48.730;9.108;2023-11-21T02:05:54;9.20;99.90
6792;DHT22;3433;48.730;9.108;2023-11-21T02:08:41;9.30;99.90
6792;DHT22;3433;48.730;9.108;2023-11-21T02:11:30;9.40;99.90
6792;DHT22;3433;48.730;9.108;2023-11-21T02:14:19;9.50;99.90
6792;DHT22;3433;48.730;9.108;2023-11-21T02:17:08;9.50;99.90
6792;DHT22;3433;48.730;9.108;2023-11-21T02:19:55;9.40;99.90
6792;DHT22;3433;48.730;9.108;2023-11-21T02:22:50;9.40;99.90
6792;DHT22;3433;48.730;9.108;2023-11-21T02:25:38;9.40;99.90
6792;DHT22;3433;48.730;9.108;2023-11-21T02:28:28;9.50;99.90
6792;DHT22;3433;48.730;9.108;2023-11-21T02:31:15;9.60;99.90
6792;DHT22;3433;48.730;9.108;2023-11-21T02:34:02;9.30;99.90
6792;DHT22;3433;48.730;9.108;2023-11-21T02:36:51;9.10;99.90
6792;DHT22;3433;48.730;9.108;2023-11-21T02:39:41;9.10;99.90
6792;DHT22;3433;48.730;9.108;2023-11-21T02:42:28;9.30;99.90
6792;DHT22;3433;48.730;9.108;2023-11-21T02:45:15;9.30;99.90
6792;DHT22;3433;48.730;9.108;2023-11-21T02:48:03;9.40;99.90
6792;DHT22;3433;48.730;9.108;2023-11-21T02:50:50;9.30;99.90
6792;DHT22;3433;48.730;9.108;2023-11-21T02:53:39;9.40;99.90
6792;DHT22;3433;48.730;9.108;2023-11-21T02:56:27;9.40;99.90
6792;DHT22;3433;48.730;9.108;2023-11-21T02:59:14;9.40;99.90
6792;DHT22;3433;48.730;9.108;2023-11-21T03:02:02;9.30;99.90
6792;DHT22;3433;48.730;9.108;2023-11-21T03:04:49;9.10;99.90
6792;DHT22;3433;48.730;9.108;2023-11-21T03:07:37;9.20;99.90
6792;DHT22;3433;48.730;9.108;2023-11-21T03:10:24;9.20;99.90
6792;DHT22;3433;48.730;9.108;2023-11-21T03:13:12;9.10;99.90
6792;DHT22;3433;48.730;9.108;2023-11-21T03:16:00;8.90;99.90
6792;DHT22;3433;48.730;9.108;2023-11-21T03:18:47;9.10;99.90
6792;DHT22;3433;48.730;9.108;2023-11-21T03:21:34;9.10;99.90
6792;DHT22;3433;48.730;9.108;2023-11-21T03:24:21;9.30;99.90
6792;DHT22;3433;48.730;9.108;2023-11-21T03:27:09;9.30;99.90
6792;DHT22;3433;48.730;9.108;2023-11-21T03:29:58;9.20;99.90
6792;DHT22;3433;48.730;9.108;2023-11-21T03:32:45;9.30;99.90
6792;DHT22;3433;48.730;9.108;2023-11-21T03:35:32;9.20;99.90
6792;DHT22;3433;48.730;9.108;2023-11-21T03:38:19;9.30;99.90
6792;DHT22;3433;48.730;9.108;2023-11-21T03:41:07;9.30;99.90
6792;DHT22;3433;48.730;9.108;2023-11-21T03:43:55;9.40;99.90
6792;DHT22;3433;48.730;9.108;2023-11-21T03:46:44;9.50;99.90
6792;DHT22;3433;48.730;9.108;2023-11-21T03:49:31;9.40;99.90
6792;DHT22;3433;48.730;9.108;2023-11-21T03:52:18;9.40;99.90
6792;DHT22;3433;48.730;9.108;2023-11-21T03:55:06;9.40;99.90
6792;DHT22;3433;48.730;9.108;2023-11-21T03:57:53;9.40;99.90
6792;DHT22;3433;48.730;9.108;2023-11-21T04:00:40;9.40;99.90
6792;DHT22;3433;48.730;9.108;2023-11-21T04:03:29;9.40;99.90
6792;DHT22;3433;48.730;9.108;2023-11-21T04:06:16;9.50;99.90
6792;DHT22;3433;48.730;9.108;2023-11-21T04:09:04;9.60;99.90
6792;DHT22;3433;48.730;9.108;2023-11-21T04:11:51;9.60;99.90
6792;DHT22;3433;48.730;9.108;2023-11-21T04:14:39;9.70;99.90
6792;DHT22;3433;48.730;9.108;2023-11-21T04:17:26;9.60;99.90
6792;DHT22;3433;48.730;9.108;2023-11-21T04:20:15;9.70;99.90
6792;DHT22;3433;48.730;9.108;2023-11-21T04:23:02;9.70;99.90
6792;DHT22;3433;48.730;9.108;2023-11-21T04:25:49;9.60;99.90
6792;DHT22;3433;48.730;9.108;2023-11-21T04:28:38;9.50;99.90
6792;DHT22;3433;48.730;9.108;2023-11-21T04:31:25;9.60;99.90
6792;DHT22;3433;48.730;9.108;2023-11-21T04:34:12;9.60;99.90
6792;DHT22;3433;48.730;9.108;2023-11-21T04:37:01;9.60;99.90
6792;DHT22;3433;48.730;9.108;2023-11-21T04:39:49;9.50;99.90
6792;DHT22;3433;48.730;9.108;2023-11-21T04:42:36;9.40;99.90
6792;DHT22;3433;48.730;9.108;2023-11-21T04:45:23;9.40;99.90
6792;DHT22;3433;48.730;9.108;2023-11-21T04:48:11;9.40;99.90
6792;DHT22;3433;48.730;9.108;2023-11-21T04:50:58;9.40;99.90
6792;DHT22;3433;48.730;9.108;2023-11-21T04:53:47;9.30;99.90
6792;DHT22;3433;48.730;9.108;2023-11-21T04:56:34;9.50;99.90
6792;DHT22;3433;48.730;9.108;2023-11-21T04:59:21;9.50;99.90
6792;DHT22;3433;48.730;9.108;2023-11-21T05:02:10;9.50;99.90
6792;DHT22;3433;48.730;9.108;2023-11-21T05:04:58;9.60;99.90
6792;DHT22;3433;48.730;9.108;2023-11-21T05:07:45;9.50;99.90
6792;DHT22;3433;48.730;9.108;2023-11-21T05:10:34;9.40;99.90
6792;DHT22;3433;48.730;9.108;2023-11-21T05:13:24;9.30;99.90
6792;DHT22;3433;48.730;9.108;2023-11-21T05:16:13;9.30;99.90
6792;DHT22;3433;48.730;9.108;2023-11-21T05:19:00;9.40;99.90
6792;DHT22;3433;48.730;9.108;2023-11-21T05:21:47;9.50;99.90
6792;DHT22;3433;48.730;9.108;2023-11-21T05:24:35;9.60;99.90
6792;DHT22;3433;48.730;9.108;2023-11-21T05:27:23;9.30;99.90
6792;DHT22;3433;48.730;9.108;2023-11-21T05:30:11;9.30;99.90
6792;DHT22;3433;48.730;9.108;2023-11-21T05:32:58;9.10;99.90
6792;DHT22;3433;48.730;9.108;2023-11-21T05:35:45;9.20;99.90
6792;DHT22;3433;48.730;9.108;2023-11-21T05:38:34;9.20;99.90
6792;DHT22;3433;48.730;9.108;2023-11-21T05:41:22;9.30;99.90
6792;DHT22;3433;48.730;9.108;2023-11-21T05:44:10;9.30;99.90
6792;DHT22;3433;48.730;9.108;2023-11-21T05:47:00;9.30;99.90
6792;DHT22;3433;48.730;9.108;2023-11-21T05:49:47;9.40;99.90
6792;DHT22;3433;48.730;9.108;2023-11-21T05:52:36;9.40;99.90
6792;DHT22;3433;48.730;9.108;2023-11-21T05:55:24;9.40;99.90
6792;DHT22;3433;48.730;9.108;2023-11-21T05:58:11;9.40;99.90
6792;DHT22;3433;48.730;9.108;2023-11-21T06:01:01;9.30;99.90
6792;DHT22;3433;48.730;9.108;2023-11-21T06:03:48;9.30;99.90
6792;DHT22;3433;48.730;9.108;2023-11-21T06:06:35;9.30;99.90
6792;DHT22;3433;48.730;9.108;2023-11-21T06:09:23;9.30;99.90
6792;DHT22;3433;48.730;9.108;2023-11-21T06:12:11;9.30;99.90
6792;DHT22;3433;48.730;9.108;2023-11-21T06:14:58;9.50;99.90
6792;DHT22;3433;48.730;9.108;2023-11-21T06:17:47;9.50;99.90
6792;DHT22;3433;48.730;9.108;2023-11-21T06:20:38;9.50;99.90
6792;DHT22;3433;48.730;9.108;2023-11-21T06:23:25;9.50;99.90
6792;DHT22;3433;48.730;9.108;2023-11-21T06:26:12;9.40;99.90
6792;DHT22;3433;48.730;9.108;2023-11-21T06:29:00;9.40;99.90
6792;DHT22;3433;48.730;9.108;2023-11-21T06:31:49;9.30;99.90
6792;DHT22;3433;48.730;9.108;2023-11-21T06:34:38;9.20;99.90
6792;DHT22;3433;48.730;9.108;2023-11-21T06:37:25;9.20;99.90
6792;DHT22;3433;48.730;9.108;2023-11-21T06:40:12;9.30;99.90
6792;DHT22;3433;48.730;9.108;2023-11-21T06:43:01;9.40;99.90
6792;DHT22;3433;48.730;9.108;2023-11-21T06:45:48;9.40;99.90
6792;DHT22;3433;48.730;9.108;2023-11-21T06:48:35;9.40;99.90
6792;DHT22;3433;48.730;9.108;2023-11-21T06:51:25;9.60;99.90
6792;DHT22;3433;48.730;9.108;2023-11-21T06:54:12;9.60;99.90
6792;DHT22;3433;48.730;9.108;2023-11-21T06:57:00;9.60;99.90
6792;DHT22;3433;48.730;9.108;2023-11-21T06:59:48;9.60;99.90
6792;DHT22;3433;48.730;9.108;2023-11-21T07:02:36;9.70;99.90
6792;DHT22;3433;48.730;9.108;2023-11-21T07:05:24;9.70;99.90
6792;DHT22;3433;48.730;9.108;2023-11-21T07:08:12;9.80;99.90
6792;DHT22;3433;48.730;9.108;2023-11-21T07:11:00;9.80;99.90
6792;DHT22;3433;48.730;9.108;2023-11-21T07:13:48;9.80;99.90
6792;DHT22;3433;48.730;9.108;2023-11-21T07:16:36;9.80;99.90
6792;DHT22;3433;48.730;9.108;2023-11-21T07:19:23;9.80;99.90
6792;DHT22;3433;48.730;9.108;2023-11-21T07:22:10;9.90;99.90
6792;DHT22;3433;48.730;9.108;2023-11-21T07:25:01;9.80;99.90
6792;DHT22;3433;48.730;9.108;2023-11-21T07:27:48;9.90;99.90
6792;DHT22;3433;48.730;9.108;2023-11-21T07:30:35;9.90;99.90
6792;DHT22;3433;48.730;9.108;2023-11-21T07:33:23;9.90;99.90
6792;DHT22;3433;48.730;9.108;2023-11-21T07:36:11;9.90;99.90
6792;DHT22;3433;48.730;9.108;2023-11-21T07:38:58;10.00;99.90
6792;DHT22;3433;48.730;9.108;2023-11-21T07:41:47;10.00;99.90
6792;DHT22;3433;48.730;9.108;2023-11-21T07:44:35;10.00;99.90
6792;DHT22;3433;48.730;9.108;2023-11-21T07:47:23;10.00;99.90
6792;DHT22;3433;48.730;9.108;2023-11-21T07:50:13;10.00;99.90
6792;DHT22;3433;48.730;9.108;2023-11-21T07:53:00;10.10;99.90
6792;DHT22;3433;48.730;9.108;2023-11-21T07:55:47;10.00;99.90
6792;DHT22;3433;48.730;9.108;2023-11-21T07:58:36;10.00;99.90
6792;DHT22;3433;48.730;9.108;2023-11-21T08:01:24;10.10;99.90
6792;DHT22;3433;48.730;9.108;2023-11-21T08:04:11;10.10;99.90
6792;DHT22;3433;48.730;9.108;2023-11-21T08:06:58;10.10;99.90
6792;DHT22;3433;48.730;9.108;2023-11-21T08:09:45;10.00;99.90
6792;DHT22;3433;48.730;9.108;2023-11-21T08:12:35;10.10;99.90
6792;DHT22;3433;48.730;9.108;2023-11-21T08:15:23;10.10;99.90
6792;DHT22;3433;48.730;9.108;2023-11-21T08:18:11;10.10;99.90
6792;DHT22;3433;48.730;9.108;2023-11-21T08:20:58;10.10;99.90
6792;DHT22;3433;48.730;9.108;2023-11-21T08:23:46;10.20;99.90
6792;DHT22;3433;48.730;9.108;2023-11-21T08:26:39;10.20;99.90
6792;DHT22;3433;48.730;9.108;2023-11-21T08:29:26;10.20;99.90
6792;DHT22;3433;48.730;9.108;2023-11-21T08:32:15;10.00;99.90
6792;DHT22;3433;48.730;9.108;2023-11-21T08:35:02;10.10;99.90
6792;DHT22;3433;48.730;9.108;2023-11-21T08:37:51;10.00;99.90
6792;DHT22;3433;48.730;9.108;2023-11-21T08:40:40;10.20;99.90
6792;DHT22;3433;48.730;9.108;2023-11-21T08:43:27;10.20;99.90
6792;DHT22;3433;48.730;9.108;2023-11-21T08:46:14;10.30;99.90
6792;DHT22;3433;48.730;9.108;2023-11-21T08:49:04;10.40;99.90
6792;DHT22;3433;48.730;9.108;2023-11-21T08:51:52;10.40;99.90
6792;DHT22;3433;48.730;9.108;2023-11-21T08:54:41;10.40;99.90
6792;DHT22;3433;48.730;9.108;2023-11-21T08:57:30;10.40;99.90
6792;DHT22;3433;48.730;9.108;2023-11-21T09:00:17;10.50;99.90
6792;DHT22;3433;48.730;9.108;2023-11-21T09:03:05;10.50;99.90
6792;DHT22;3433;48.730;9.108;2023-11-21T09:05:55;10.50;99.90
6792;DHT22;3433;48.730;9.108;2023-11-21T09:08:43;10.60;99.90
6792;DHT22;3433;48.730;9.108;2023-11-21T09:11:30;10.70;99.90
6792;DHT22;3433;48.730;9.108;2023-11-21T09:14:19;10.70;99.90
6792;DHT22;3433;48.730;9.108;2023-11-21T09:17:06;10.80;99.90
6792;DHT22;3433;48.730;9.108;2023-11-21T09:19:56;10.80;99.90
6792;DHT22;3433;48.730;9.108;2023-11-21T09:22:45;10.80;99.90
6792;DHT22;3433;48.730;9.108;2023-11-21T09:25:32;10.70;99.90
6792;DHT22;3433;48.730;9.108;2023-11-21T09:28:20;10.70;99.90
6792;DHT22;3433;48.730;9.108;2023-11-21T09:31:07;10.80;99.90
6792;DHT22;3433;48.730;9.108;2023-11-21T09:33:55;10.80;99.90
6792;DHT22;3433;48.730;9.108;2023-11-21T09:36:44;10.70;99.90
6792;DHT22;3433;48.730;9.108;2023-11-21T09:39:33;10.60;99.90
6792;DHT22;3433;48.730;9.108;2023-11-21T09:42:25;10.60;99.90
6792;DHT22;3433;48.730;9.108;2023-11-21T09:45:17;10.70;99.90
6792;DHT22;3433;48.730;9.108;2023-11-21T09:48:06;10.70;99.90
6792;DHT22;3433;48.730;9.108;2023-11-21T09:50:54;10.70;99.90
6792;DHT22;3433;48.730;9.108;2023-11-21T09:53:43;10.50;99.90
6792;DHT22;3433;48.730;9.108;2023-11-21T09:56:33;10.70;99.90
6792;DHT22;3433;48.730;9.108;2023-11-21T09:59:21;10.60;99.90
6792;DHT22;3433;48.730;9.108;2023-11-21T10:02:09;10.70;99.90
6792;DHT22;3433;48.730;9.108;2023-11-21T10:04:59;10.90;99.90
6792;DHT22;3433;48.730;9.108;2023-11-21T10:07:46;11.00;99.90
6792;DHT22;3433;48.730;9.108;2023-11-21T10:10:35;10.90;99.90
6792;DHT22;3433;48.730;9.108;2023-11-21T10:13:24;11.00;99.90
6792;DHT22;3433;48.730;9.108;2023-11-21T10:16:19;11.00;99.90
6792;DHT22;3433;48.730;9.108;2023-11-21T10:19:10;11.00;99.90
6792;DHT22;3433;48.730;9.108;2023-11-21T10:22:00;11.00;99.90
6792;DHT22;3433;48.730;9.108;2023-11-21T10:24:49;10.90;99.90
6792;DHT22;3433;48.730;9.108;2023-11-21T10:27:36;10.90;99.90
6792;DHT22;3433;48.730;9.108;2023-11-21T10:30:28;10.90;99.90
6792;DHT22;3433;48.730;9.108;2023-11-21T10:33:27;10.90;99.90
6792;DHT22;3433;48.730;9.108;2023-11-21T10:36:25;10.90;99.90
6792;DHT22;3433;48.730;9.108;2023-11-21T10:39:14;10.90;99.90
6792;DHT22;3433;48.730;9.108;2023-11-21T10:42:04;10.80;99.90
6792;DHT22;3433;48.730;9.108;2023-11-21T10:44:55;10.80;99.90
6792;DHT22;3433;48.730;9.108;2023-11-21T10:47:44;10.80;99.90
6792;DHT22;3433;48.730;9.108;2023-11-21T10:50:32;10.80;99.90
6792;DHT22;3433;48.730;9.108;2023-11-21T10:53:20;10.90;99.90
6792;DHT22;3433;48.730;9.108;2023-11-21T10:56:09;10.80;99.90
6792;DHT22;3433;48.730;9.108;2023-11-21T10:58:57;10.80;99.90
6792;DHT22;3433;48.730;9.108;2023-11-21T11:01:45;10.80;99.90
6792;DHT22;3433;48.730;9.108;2023-11-21T11:04:34;10.80;99.90
6792;DHT22;3433;48.730;9.108;2023-11-21T11:07:26;10.70;99.90
6792;DHT22;3433;48.730;9.108;2023-11-21T11:10:14;10.80;99.90
6792;DHT22;3433;48.730;9.108;2023-11-21T11:13:02;10.80;99.90
6792;DHT22;3433;48.730;9.108;2023-11-21T11:15:50;10.80;99.90
6792;DHT22;3433;48.730;9.108;2023-11-21T11:18:37;10.80;99.90
6792;DHT22;3433;48.730;9.108;2023-11-21T11:21:32;10.80;99.90
6792;DHT22;3433;48.730;9.108;2023-11-21T11:24:44;10.80;99.90
6792;DHT22;3433;48.730;9.108;2023-11-21T11:27:44;10.80;99.90
6792;DHT22;3433;48.730;9.108;2023-11-21T11:30:45;10.80;99.90
6792;DHT22;3433;48.730;9.108;2023-11-21T11:33:39;10.80;99.90
6792;DHT22;3433;48.730;9.108;2023-11-21T11:36:32;10.80;99.90
6792;DHT22;3433;48.730;9.108;2023-11-21T11:39:27;10.80;99.90
6792;DHT22;3433;48.730;9.108;2023-11-21T11:42:17;10.80;99.90
6792;DHT22;3433;48.730;9.108;2023-11-21T11:45:17;10.70;99.90
6792;DHT22;3433;48.730;9.108;2023-11-21T11:48:05;10.70;99.90
6792;DHT22;3433;48.730;9.108;2023-11-21T11:51:03;10.80;99.90
6792;DHT22;3433;48.730;9.108;2023-11-21T11:53:52;10.80;99.90
6792;DHT22;3433;48.730;9.108;2023-11-21T11:56:39;10.90;99.90
6792;DHT22;3433;48.730;9.108;2023-11-21T11:59:27;10.90;99.90
6792;DHT22;3433;48.730;9.108;2023-11-21T12:02:15;10.90;99.90
6792;DHT22;3433;48.730;9.108;2023-11-21T12:05:09;11.00;99.90
6792;DHT22;3433;48.730;9.108;2023-11-21T12:07:58;11.10;99.90
6792;DHT22;3433;48.730;9.108;2023-11-21T12:10:47;11.00;99.90
6792;DHT22;3433;48.730;9.108;2023-11-21T12:13:36;11.10;99.90
6792;DHT22;3433;48.730;9.108;2023-11-21T12:16:24;11.10;99.90
6792;DHT22;3433;48.730;9.108;2023-11-21T12:19:13;11.10;99.90
6792;DHT22;3433;48.730;9.108;2023-11-21T12:22:00;11.20;99.90
6792;DHT22;3433;48.730;9.108;2023-11-21T12:24:47;11.20;99.90
6792;DHT22;3433;48.730;9.108;2023-11-21T12:27:36;11.20;99.90
6792;DHT22;3433;48.730;9.108;2023-11-21T12:30:24;11.20;99.90
6792;DHT22;3433;48.730;9.108;2023-11-21T12:33:14;11.20;99.90
6792;DHT22;3433;48.730;9.108;2023-11-21T12:36:04;11.30;99.90
6792;DHT22;3433;48.730;9.108;2023-11-21T12:38:52;11.30;99.90
6792;DHT22;3433;48.730;9.108;2023-11-21T12:41:39;11.30;99.90
6792;DHT22;3433;48.730;9.108;2023-11-21T12:44:28;11.30;99.90
6792;DHT22;3433;48.730;9.108;2023-11-21T12:47:17;11.20;99.90
6792;DHT22;3433;48.730;9.108;2023-11-21T12:50:05;11.10;99.90
6792;DHT22;3433;48.730;9.108;2023-11-21T12:52:57;11.00;99.90
6792;DHT22;3433;48.730;9.108;2023-11-21T12:55:44;11.10;99.90
6792;DHT22;3433;48.730;9.108;2023-11-21T12:58:38;11.10;99.90
6792;DHT22;3433;48.730;9.108;2023-11-21T13:01:27;11.20;99.90
6792;DHT22;3433;48.730;9.108;2023-11-21T13:04:15;11.00;99.90
6792;DHT22;3433;48.730;9.108;2023-11-21T13:07:04;10.90;99.90
6792;DHT22;3433;48.730;9.108;2023-11-21T13:09:59;10.90;99.90
6792;DHT22;3433;48.730;9.108;2023-11-21T13:12:46;10.90;99.90
6792;DHT22;3433;48.730;9.108;2023-11-21T13:15:34;10.80;99.90
6792;DHT22;3433;48.730;9.108;2023-11-21T13:18:24;10.80;99.90
6792;DHT22;3433;48.730;9.108;2023-11-21T13:21:12;10.90;99.90
6792;DHT22;3433;48.730;9.108;2023-11-21T13:23:59;10.90;99.90
6792;DHT22;3433;48.730;9.108;2023-11-21T13:26:46;10.90;99.90
6792;DHT22;3433;48.730;9.108;2023-11-21T13:29:35;10.90;99.90
6792;DHT22;3433;48.730;9.108;2023-11-21T13:32:22;10.90;99.90
6792;DHT22;3433;48.730;9.108;2023-11-21T13:35:11;10.70;99.90
6792;DHT22;3433;48.730;9.108;2023-11-21T13:38:07;10.70;99.90
6792;DHT22;3433;48.730;9.108;2023-11-21T13:40:55;10.40;99.90
6792;DHT22;3433;48.730;9.108;2023-11-21T13:43:44;10.30;99.90
6792;DHT22;3433;48.730;9.108;2023-11-21T13:46:36;10.40;99.90
6792;DHT22;3433;48.730;9.108;2023-11-21T13:49:24;10.40;99.90
6792;DHT22;3433;48.730;9.108;2023-11-21T13:52:14;10.50;99.90
6792;DHT22;3433;48.730;9.108;2023-11-21T13:55:03;10.30;99.90
6792;DHT22;3433;48.730;9.108;2023-11-21T13:57:52;10.40;99.90
6792;DHT22;3433;48.730;9.108;2023-11-21T14:00:39;10.50;99.90
6792;DHT22;3433;48.730;9.108;2023-11-21T14:03:30;10.40;99.90
6792;DHT22;3433;48.730;9.108;2023-11-21T14:06:25;10.50;99.90
6792;DHT22;3433;48.730;9.108;2023-11-21T14:09:22;10.40;99.90
6792;DHT22;3433;48.730;9.108;2023-11-21T14:12:11;10.40;99.90
6792;DHT22;3433;48.730;9.108;2023-11-21T14:15:00;10.40;99.90
6792;DHT22;3433;48.730;9.108;2023-11-21T14:17:50;10.40;99.90
6792;DHT22;3433;48.730;9.108;2023-11-21T14:20:38;10.30;99.90
6792;DHT22;3433;48.730;9.108;2023-11-21T14:23:25;10.30;99.90
6792;DHT22;3433;48.730;9.108;2023-11-21T14:26:15;10.40;99.90
6792;DHT22;3433;48.730;9.108;2023-11-21T14:29:04;10.40;99.90
6792;DHT22;3433;48.730;9.108;2023-11-21T14:31:52;10.40;99.90
6792;DHT22;3433;48.730;9.108;2023-11-21T14:34:42;10.30;99.90
6792;DHT22;3433;48.730;9.108;2023-11-21T14:37:32;10.40;99.90
6792;DHT22;3433;48.730;9.108;2023-11-21T14:40:20;10.30;99.90
6792;DHT22;3433;48.730;9.108;2023-11-21T14:43:11;10.20;99.90
6792;DHT22;3433;48.730;9.108;2023-11-21T14:45:58;10.20;99.90
6792;DHT22;3433;48.730;9.108;2023-11-21T14:48:46;10.10;99.90
6792;DHT22;3433;48.730;9.108;2023-11-21T14:51:44;10.20;99.90
6792;DHT22;3433;48.730;9.108;2023-11-21T14:54:45;10.20;99.90
6792;DHT22;3433;48.730;9.108;2023-11-21T14:57:32;10.10;99.90
6792;DHT22;3433;48.730;9.108;2023-11-21T15:00:21;10.20;99.90
6792;DHT22;3433;48.730;9.108;2023-11-21T15:03:28;10.20;99.90
6792;DHT22;3433;48.730;9.108;2023-11-21T15:06:34;10.20;99.90
6792;DHT22;3433;48.730;9.108;2023-11-21T15:09:21;10.10;99.90
6792;DHT22;3433;48.730;9.108;2023-11-21T15:12:22;10.20;99.90
6792;DHT22;3433;48.730;9.108;2023-11-21T15:15:12;10.10;99.90
6792;DHT22;3433;48.730;9.108;2023-11-21T15:18:01;10.10;99.90
6792;DHT22;3433;48.730;9.108;2023-11-21T15:20:48;10.10;99.90
6792;DHT22;3433;48.730;9.108;2023-11-21T15:23:35;10.10;99.90
6792;DHT22;3433;48.730;9.108;2023-11-21T15:26:23;10.10;99.90
6792;DHT22;3433;48.730;9.108;2023-11-21T15:29:10;10.20;99.90
6792;DHT22;3433;48.730;9.108;2023-11-21T15:31:58;10.20;99.90
6792;DHT22;3433;48.730;9.108;2023-11-21T15:34:47;10.20;99.90
6792;DHT22;3433;48.730;9.108;2023-11-21T15:37:34;10.10;99.90
6792;DHT22;3433;48.730;9.108;2023-11-21T15:40:22;10.00;99.90
6792;DHT22;3433;48.730;9.108;2023-11-21T15:43:09;10.10;99.90
6792;DHT22;3433;48.730;9.108;2023-11-21T15:45:57;10.20;99.90
6792;DHT22;3433;48.730;9.108;2023-11-21T15:48:44;10.10;99.90
6792;DHT22;3433;48.730;9.108;2023-11-21T15:51:38;10.10;99.90
6792;DHT22;3433;48.730;9.108;2023-11-21T15:54:26;10.10;99.90
6792;DHT22;3433;48.730;9.108;2023-11-21T15:57:13;10.10;99.90
6792;DHT22;3433;48.730;9.108;2023-11-21T16:00:01;10.10;99.90
6792;DHT22;3433;48.730;9.108;2023-11-21T16:02:54;10.00;99.90
6792;DHT22;3433;48.730;9.108;2023-11-21T16:05:42;10.00;99.90
6792;DHT22;3433;48.730;9.108;2023-11-21T16:08:31;10.00;99.90
6792;DHT22;3433;48.730;9.108;2023-11-21T16:11:18;10.10;99.90
6792;DHT22;3433;48.730;9.108;2023-11-21T16:14:14;10.20;99.90
6792;DHT22;3433;48.730;9.108;2023-11-21T16:17:05;10.20;99.90
6792;DHT22;3433;48.730;9.108;2023-11-21T16:19:53;10.10;99.90
6792;DHT22;3433;48.730;9.108;2023-11-21T16:22:41;10.10;99.90
6792;DHT22;3433;48.730;9.108;2023-11-21T16:25:30;10.10;99.90
6792;DHT22;3433;48.730;9.108;2023-11-21T16:28:18;10.10;99.90
6792;DHT22;3433;48.730;9.108;2023-11-21T16:31:05;10.10;99.90
6792;DHT22;3433;48.730;9.108;2023-11-21T16:33:52;10.20;99.90
6792;DHT22;3433;48.730;9.108;2023-11-21T16:36:39;10.10;99.90
6792;DHT22;3433;48.730;9.108;2023-11-21T16:39:27;10.10;99.90
6792;DHT22;3433;48.730;9.108;2023-11-21T16:42:16;10.10;99.90
6792;DHT22;3433;48.730;9.108;2023-11-21T16:45:03;10.10;99.90
6792;DHT22;3433;48.730;9.108;2023-11-21T16:47:51;10.10;99.90
6792;DHT22;3433;48.730;9.108;2023-11-21T16:50:38;10.10;99.90
6792;DHT22;3433;48.730;9.108;2023-11-21T16:53:29;10.10;99.90
6792;DHT22;3433;48.730;9.108;2023-11-21T16:56:16;10.10;99.90
6792;DHT22;3433;48.730;9.108;2023-11-21T16:59:05;10.10;99.90
6792;DHT22;3433;48.730;9.108;2023-11-21T17:01:52;10.10;99.90
6792;DHT22;3433;48.730;9.108;2023-11-21T17:04:39;10.10;99.90
6792;DHT22;3433;48.730;9.108;2023-11-21T17:07:31;10.00;99.90
6792;DHT22;3433;48.730;9.108;2023-11-21T17:10:19;10.00;99.90
6792;DHT22;3433;48.730;9.108;2023-11-21T17:13:07;10.00;99.90
6792;DHT22;3433;48.730;9.108;2023-11-21T17:15:56;10.00;99.90
6792;DHT22;3433;48.730;9.108;2023-11-21T17:18:43;10.00;99.90
6792;DHT22;3433;48.730;9.108;2023-11-21T17:21:30;10.00;99.90
6792;DHT22;3433;48.730;9.108;2023-11-21T17:24:18;10.00;99.90
6792;DHT22;3433;48.730;9.108;2023-11-21T17:27:05;10.00;99.90
6792;DHT22;3433;48.730;9.108;2023-11-21T17:29:52;10.00;99.90
6792;DHT22;3433;48.730;9.108;2023-11-21T17:32:41;10.00;99.90
6792;DHT22;3433;48.730;9.108;2023-11-21T17:35:28;10.00;99.90
6792;DHT22;3433;48.730;9.108;2023-11-21T17:38:15;10.00;99.90
6792;DHT22;3433;48.730;9.108;2023-11-21T17:41:03;9.90;99.90
6792;DHT22;3433;48.730;9.108;2023-11-21T17:43:50;10.00;99.90
6792;DHT22;3433;48.730;9.108;2023-11-21T17:46:37;10.00;99.90
6792;DHT22;3433;48.730;9.108;2023-11-21T17:49:26;10.00;99.90
6792;DHT22;3433;48.730;9.108;2023-11-21T17:52:13;10.00;99.90
6792;DHT22;3433;48.730;9.108;2023-11-21T17:55:00;9.90;99.90
6792;DHT22;3433;48.730;9.108;2023-11-21T17:57:47;9.90;99.90
6792;DHT22;3433;48.730;9.108;2023-11-21T18:00:34;9.80;99.90
6792;DHT22;3433;48.730;9.108;2023-11-21T18:03:21;9.80;99.90
6792;DHT22;3433;48.730;9.108;2023-11-21T18:06:10;9.90;99.90
6792;DHT22;3433;48.730;9.108;2023-11-21T18:08:58;9.80;99.90
6792;DHT22;3433;48.730;9.108;2023-11-21T18:11:46;9.90;99.90
6792;DHT22;3433;48.730;9.108;2023-11-21T18:14:33;9.90;99.90
6792;DHT22;3433;48.730;9.108;2023-11-21T18:17:21;9.80;99.90
6792;DHT22;3433;48.730;9.108;2023-11-21T18:20:09;9.90;99.90
6792;DHT22;3433;48.730;9.108;2023-11-21T18:22:58;9.80;99.90
6792;DHT22;3433;48.730;9.108;2023-11-21T18:25:45;9.80;99.90
6792;DHT22;3433;48.730;9.108;2023-11-21T18:28:32;9.80;99.90